Kezdőlap
METAR-TAF:

METAR-TAF

Repülőterek :

Umiujaq, Québec, Kanada

földrajzi szélesség: 56-32N, földrajzi hosszúság: 076-31W, magasság: 71 m

Jelenlegi meteorológiai megfigyelések

A jelentés 1 órával és 53 perccel ezelõtt készült, 22:00 UTC
Nyugati szél 5 kt
Hőmérséklet -22°C
Páratartalom 84%
Légköri nyomás 1003 hPa
Látótávolság: 22.5 km
Kevés felhő 1100 lábon
Kevés felhő 1800 lábon
Jégtű

METAR: CYMU 222200Z 27005KT 14SM IC FEW011 FEW018 M22/M24 A2963 RMK ST1SC1 ST TR LAST STFD OBS/NEXT 231300UTC SLP045

Idő: 18:53 (23:53 UTC)


TAF: hiányzik

Meteorológiai megfigyelések és előrejelzések több, mint 4000 repülőtéren (METAR és TAF jelentéseket).

A térképen piros és sárga pontok jelzik az elérhető meteorológiai állomásokat.

Mozgassa az egeret a pont fölött, hogy megjelenjen az állomás neve.

Azután kattintson az időjárási megfigyelések és előrejelzések megtekintéséhez.

A térkép megváltoztatása: kattintson a fekete keresztel jelölt zöld gombra ráközelítéshez, a vonallal jelölt zöld gombra távolításhoz, vagy a zöld nyilakra a szomszédos térképek eléréséhez.


METAR-TAF: